Time;durP1;ratioP1;P1;durP2;ratioP2;P2;SDS_P1;SDS_P2;PMS_P1;PMS_P2;Temp;Humidity;BMP_temperature;BMP_pressure;BME280_temperature;BME280_humidity;BME280_pressure;Samples;Min_cycle;Max_cycle;Signal;HPM_P1;HPM_P2
2023/06/27 00:03:06;;;;;;;4.12;3.42;;;;;;;16.70;76.85;99690.25;1770893;80;21158;-56
2023/06/27 00:06:19;;;;;;;3.72;2.62;;;;;;;16.69;76.79;99689.40;1771241;80;21200;-55
2023/06/27 00:09:22;;;;;;;7.28;4.45;;;;;;;16.67;76.79;99697.07;1770537;79;21185;-55
2023/06/27 00:12:30;;;;;;;10.35;6.12;;;;;;;16.67;76.82;99690.69;1771007;80;21182;-55
2023/06/27 00:15:37;;;;;;;5.97;2.40;;;;;;;16.68;76.92;99687.69;1771259;80;21208;-56
2023/06/27 00:18:47;;;;;;;5.78;2.15;;;;;;;16.69;76.98;99691.31;1770611;80;21212;-58
2023/06/27 00:21:50;;;;;;;11.28;3.27;;;;;;;16.68;76.97;99685.48;1770485;80;21332;-55
2023/06/27 00:24:57;;;;;;;7.58;4.17;;;;;;;16.68;76.98;99689.07;1770375;79;21891;-56
2023/06/27 00:28:03;;;;;;;11.03;4.08;;;;;;;16.67;76.98;99697.07;1770940;80;21196;-56
2023/06/27 00:31:10;;;;;;;3.45;1.75;;;;;;;16.66;77.03;99691.77;1770686;80;21223;-56
2023/06/27 00:34:16;;;;;;;7.97;3.65;;;;;;;16.65;77.02;99685.39;1770632;80;21248;-56
2023/06/27 00:37:22;;;;;;;2.22;1.30;;;;;;;16.60;76.98;99681.66;1770998;80;21844;-56
2023/06/27 00:40:28;;;;;;;9.55;4.03;;;;;;;16.57;77.02;99681.56;1770934;80;21216;-56
2023/06/27 00:43:38;;;;;;;3.08;1.57;;;;;;;16.54;77.06;99677.06;1769561;80;21409;-56
2023/06/27 00:46:46;;;;;;;9.30;3.33;;;;;;;16.54;77.15;99670.16;1770775;79;21367;-59
2023/06/27 00:49:53;;;;;;;7.58;2.37;;;;;;;16.50;77.17;99668.38;1770661;80;21192;-57
2023/06/27 00:53:02;;;;;;;15.68;5.17;;;;;;;16.48;77.15;99665.52;1770641;80;21177;-57
2023/06/27 00:56:08;;;;;;;10.03;4.28;;;;;;;16.46;77.26;99672.66;1770648;81;21458;-57
2023/06/27 00:59:14;;;;;;;3.60;1.92;;;;;;;16.47;77.37;99669.38;1762191;81;21351;-57
2023/06/27 01:02:23;;;;;;;5.90;1.95;;;;;;;16.48;77.39;99671.05;1770747;80;21201;-57
2023/06/27 01:05:29;;;;;;;2.30;1.10;;;;;;;16.47;77.34;99663.84;1770685;81;21336;-58
2023/06/27 01:08:43;;;;;;;1.42;0.88;;;;;;;16.42;77.30;99664.52;1770730;80;21193;-58
2023/06/27 01:11:53;;;;;;;2.10;0.80;;;;;;;16.39;77.31;99667.74;1770963;81;21235;-56
2023/06/27 01:15:01;;;;;;;1.90;0.85;;;;;;;16.35;77.37;99664.59;1770763;81;21259;-58
2023/06/27 01:18:06;;;;;;;3.90;1.00;;;;;;;16.32;77.37;99662.81;1770830;81;21180;-58
2023/06/27 01:21:14;;;;;;;1.32;1.00;;;;;;;16.29;77.40;99667.42;1770621;81;21220;-58
2023/06/27 01:24:25;;;;;;;2.33;0.80;;;;;;;16.28;77.49;99672.66;1770943;80;21223;-57
2023/06/27 01:27:30;;;;;;;2.05;0.80;;;;;;;16.27;77.51;99675.09;1770535;80;21335;-56
2023/06/27 01:30:35;;;;;;;1.95;0.60;;;;;;;16.25;77.61;99682.22;1770683;80;21252;-57
2023/06/27 01:34:00;;;;;;;0.85;0.72;;;;;;;16.26;77.63;99676.17;1770662;81;21694;-58
2023/06/27 01:37:31;;;;;;;0.90;0.80;;;;;;;16.26;77.73;99674.27;1771284;80;21192;-57
2023/06/27 01:40:40;;;;;;;0.68;0.65;;;;;;;16.27;77.77;99676.47;1770586;80;21260;-57
2023/06/27 01:43:47;;;;;;;0.70;0.70;;;;;;;16.27;77.87;99678.70;1770693;81;21331;-56
2023/06/27 01:46:55;;;;;;;2.33;0.70;;;;;;;16.27;77.82;99680.08;1769703;81;21395;-58
2023/06/27 01:50:01;;;;;;;0.60;0.60;;;;;;;16.22;77.79;99675.78;1772451;80;21891;-57
2023/06/27 01:53:07;;;;;;;1.12;0.55;;;;;;;16.21;77.84;99674.10;1772546;80;21362;-58
2023/06/27 01:56:15;;;;;;;0.98;0.65;;;;;;;16.20;77.85;99684.86;1772543;80;21311;-56
2023/06/27 01:59:21;;;;;;;2.77;0.80;;;;;;;16.18;77.86;99684.23;1772423;80;21346;-55
2023/06/27 02:02:26;;;;;;;3.00;0.98;;;;;;;16.14;77.86;99676.64;1772504;80;21354;-57
2023/06/27 02:05:33;;;;;;;1.15;0.70;;;;;;;16.12;77.92;99684.30;1772413;80;21860;-56
2023/06/27 02:08:40;;;;;;;0.80;0.80;;;;;;;16.07;77.92;99678.61;1772609;79;21355;-57
2023/06/27 02:11:45;;;;;;;0.85;0.80;;;;;;;16.04;77.93;99682.69;1772293;80;21347;-56
2023/06/27 02:14:52;;;;;;;3.22;0.90;;;;;;;16.01;77.98;99683.67;1772555;80;21349;-56
2023/06/27 02:17:58;;;;;;;3.50;0.82;;;;;;;15.97;78.01;99687.41;1772890;80;21331;-56
2023/06/27 02:21:06;;;;;;;2.85;1.20;;;;;;;15.93;78.04;99686.19;1772390;80;21379;-57
2023/06/27 02:24:14;;;;;;;5.80;1.20;;;;;;;15.89;78.04;99680.80;1772599;80;21899;-56
2023/06/27 02:27:20;;;;;;;1.20;1.00;;;;;;;15.84;78.08;99694.44;1772873;80;21335;-57
2023/06/27 02:30:26;;;;;;;3.12;1.30;;;;;;;15.83;78.17;99690.00;1772683;80;21837;-57
2023/06/27 02:33:32;;;;;;;1.27;1.00;;;;;;;15.84;78.26;99701.89;1772504;80;21841;-58
2023/06/27 02:36:39;;;;;;;1.62;1.05;;;;;;;15.83;78.34;99699.66;1772477;80;21398;-56
2023/06/27 02:39:45;;;;;;;3.12;1.10;;;;;;;15.85;78.43;99692.53;1772545;80;21927;-58
2023/06/27 02:42:54;;;;;;;5.85;1.77;;;;;;;15.87;78.54;99699.50;1772924;80;21897;-57
2023/06/27 02:46:00;;;;;;;1.35;1.22;;;;;;;15.92;78.57;99705.75;1771142;80;21347;-57
2023/06/27 02:49:07;;;;;;;2.67;1.22;;;;;;;15.90;78.54;99694.08;1770534;81;21201;-58
2023/06/27 02:52:14;;;;;;;1.20;1.10;;;;;;;15.89;78.58;99695.98;1770703;81;21267;-57
2023/06/27 02:55:19;;;;;;;1.40;1.30;;;;;;;15.90;78.61;99685.23;1771197;80;21193;-56
2023/06/27 02:58:25;;;;;;;3.17;1.37;;;;;;;15.92;78.68;99687.25;1763737;81;21907;-58
2023/06/27 03:01:33;;;;;;;2.75;1.50;;;;;;;15.94;78.72;99686.49;1770604;80;21843;-59
2023/06/27 03:04:41;;;;;;;2.02;1.47;;;;;;;15.94;78.70;99689.25;1770605;80;21193;-56
2023/06/27 03:07:46;;;;;;;2.95;2.05;;;;;;;15.95;78.72;99697.83;1770985;80;21220;-58
2023/06/27 03:10:47;;;;;;;3.58;1.40;;;;;;;15.97;78.77;99698.45;1771331;80;21717;-56
2023/06/27 03:13:54;;;;;;;2.37;1.70;;;;;;;15.99;78.77;99709.27;1774147;79;21260;-57
2023/06/27 03:17:01;;;;;;;4.78;1.70;;;;;;;15.99;78.79;99701.84;1771369;80;21189;-62
2023/06/27 03:20:08;;;;;;;2.27;1.70;;;;;;;16.00;78.80;99708.19;1770608;79;21375;-57
2023/06/27 03:23:15;;;;;;;2.75;1.87;;;;;;;16.00;78.77;99715.95;1770826;81;21324;-56
2023/06/27 03:26:27;;;;;;;3.58;2.10;;;;;;;15.96;78.64;99720.77;1770745;81;21708;-56
2023/06/27 03:29:31;;;;;;;2.27;1.57;;;;;;;15.91;78.67;99717.31;1770863;81;21222;-58
2023/06/27 03:32:38;;;;;;;2.80;1.70;;;;;;;15.92;78.82;99714.84;1770652;81;21771;-56
2023/06/27 03:35:44;;;;;;;1.90;1.50;;;;;;;15.95;78.86;99715.77;1770689;81;21224;-56
2023/06/27 03:38:51;;;;;;;1.98;1.32;;;;;;;15.98;78.85;99711.17;1770240;81;21217;-57
2023/06/27 03:41:59;;;;;;;2.98;1.30;;;;;;;15.99;78.87;99707.37;1770413;81;21283;-56
2023/06/27 03:45:05;;;;;;;2.05;1.37;;;;;;;16.04;78.90;99703.39;1770114;79;21761;-56
2023/06/27 03:48:13;;;;;;;2.42;1.40;;;;;;;16.11;78.98;99711.05;1768463;81;21749;-57
2023/06/27 03:51:19;;;;;;;1.15;1.02;;;;;;;16.19;79.03;99710.77;1763626;81;21222;-56
2023/06/27 03:54:25;;;;;;;1.92;1.10;;;;;;;16.27;79.03;99711.84;1770940;80;21749;-55
2023/06/27 03:57:24;;;;;;;1.30;1.00;;;;;;;16.35;79.05;99703.27;1770748;80;21201;-55
2023/06/27 04:00:30;;;;;;;1.35;1.10;;;;;;;16.40;78.92;99708.09;1790769;79;21852;-54
2023/06/27 04:03:38;;;;;;;2.30;0.98;;;;;;;16.42;78.86;99712.33;1770132;79;21737;-56
2023/06/27 04:06:46;;;;;;;2.62;1.20;;;;;;;16.44;78.81;99710.19;1770371;80;21204;-55
2023/06/27 04:09:54;;;;;;;2.05;1.20;;;;;;;16.44;78.78;99701.91;1770252;80;21801;-56
2023/06/27 04:13:01;;;;;;;1.57;1.00;;;;;;;16.47;78.77;99702.53;1770412;80;21184;-57
2023/06/27 04:16:08;;;;;;;1.57;1.20;;;;;;;16.54;78.89;99704.13;1770520;79;21209;-55
2023/06/27 04:19:14;;;;;;;1.90;1.20;;;;;;;16.68;79.09;99703.45;1770588;80;21260;-57
2023/06/27 04:22:21;;;;;;;1.60;1.00;;;;;;;16.80;79.05;99705.73;1770217;80;21718;-55
2023/06/27 04:25:29;;;;;;;1.82;1.17;;;;;;;16.85;78.90;99699.83;1770670;80;21820;-55
2023/06/27 04:28:37;;;;;;;1.42;1.20;;;;;;;16.88;78.80;99704.03;1770730;79;21212;-56
2023/06/27 04:31:43;;;;;;;1.77;1.10;;;;;;;16.91;78.70;99708.56;1770390;81;21216;-57
2023/06/27 04:34:50;;;;;;;1.57;1.12;;;;;;;16.91;78.62;99710.47;1771350;79;21213;-56
2023/06/27 04:37:57;;;;;;;1.00;0.90;;;;;;;16.90;78.51;99708.27;1770829;80;21725;-56
2023/06/27 04:41:05;;;;;;;1.72;1.07;;;;;;;16.91;78.56;99709.09;1771045;80;22036;-57
2023/06/27 04:44:11;;;;;;;1.60;1.20;;;;;;;16.94;78.62;99708.09;1770719;79;21234;-56
2023/06/27 04:47:18;;;;;;;1.00;0.90;;;;;;;16.95;78.57;99711.71;1770029;80;21208;-56
2023/06/27 04:50:23;;;;;;;1.62;0.70;;;;;;;16.96;78.57;99709.24;1772437;79;21410;-58
2023/06/27 04:53:32;;;;;;;1.42;1.00;;;;;;;16.98;78.56;99711.23;1781548;79;21336;-57
2023/06/27 04:56:40;;;;;;;2.05;1.32;;;;;;;17.00;78.54;99712.69;1803577;79;21933;-55
2023/06/27 04:59:46;;;;;;;1.57;0.88;;;;;;;17.00;78.43;99717.39;1800971;79;21347;-58
2023/06/27 05:02:53;;;;;;;1.40;0.82;;;;;;;17.00;78.31;99716.01;1780224;79;21367;-58
2023/06/27 05:06:00;;;;;;;4.25;1.92;;;;;;;17.02;78.35;99710.53;1777264;79;21338;-58
2023/06/27 05:09:06;;;;;;;9.68;7.65;;;;;;;17.12;78.51;99714.13;1783585;79;21359;-56
2023/06/27 05:12:13;;;;;;;1.40;1.20;;;;;;;17.23;78.56;99711.41;1790690;79;21319;-55
2023/06/27 05:15:18;;;;;;;2.00;0.65;;;;;;;17.32;78.59;99713.29;1784731;79;21928;-58
2023/06/27 05:18:47;;;;;;;1.22;0.80;;;;;;;17.32;78.34;99721.59;1770462;80;21394;-60
2023/06/27 05:21:53;;;;;;;0.98;0.80;;;;;;;17.22;78.10;99715.23;1786004;79;21419;-58
2023/06/27 05:25:00;;;;;;;11.35;1.20;;;;;;;17.19;77.99;99720.39;1799701;79;21438;-57
2023/06/27 05:28:05;;;;;;;2.40;0.82;;;;;;;17.16;77.95;99716.71;1802239;79;21375;-58
2023/06/27 05:31:10;;;;;;;2.22;0.90;;;;;;;17.18;78.03;99716.80;1778007;79;21383;-56
2023/06/27 05:34:16;;;;;;;2.80;1.35;;;;;;;17.20;77.97;99716.04;1771322;80;21355;-57
2023/06/27 05:37:22;;;;;;;1.60;1.05;;;;;;;17.23;77.97;99718.33;1782275;79;21363;-58
2023/06/27 05:40:29;;;;;;;1.10;0.90;;;;;;;17.27;78.11;99722.83;1791921;79;21725;-57
2023/06/27 05:43:37;;;;;;;2.50;1.42;;;;;;;17.37;78.20;99722.59;1787556;79;21432;-59
2023/06/27 05:46:48;;;;;;;1.22;1.10;;;;;;;17.40;78.05;99725.41;1752432;81;21224;-57
2023/06/27 05:49:52;;;;;;;2.55;1.17;;;;;;;17.38;77.94;99715.11;1774645;79;21871;-56
2023/06/27 05:52:58;;;;;;;2.08;1.00;;;;;;;17.45;77.92;99714.52;1783696;78;21200;-56
2023/06/27 05:56:04;;;;;;;1.45;1.10;;;;;;;17.53;77.89;99708.11;1791678;79;21208;-56
2023/06/27 05:59:09;;;;;;;1.98;1.30;;;;;;;17.63;77.83;99714.45;1737998;81;21729;-57
2023/06/27 06:02:14;;;;;;;2.17;1.30;;;;;;;17.70;77.81;99709.63;1778139;79;21343;-57
2023/06/27 06:05:20;;;;;;;1.87;1.02;;;;;;;17.71;77.71;99712.16;1775253;79;21339;-58
2023/06/27 06:08:28;;;;;;;1.65;1.07;;;;;;;17.68;77.64;99708.48;1799310;79;21343;-58
2023/06/27 06:11:36;;;;;;;0.93;0.88;;;;;;;17.69;77.69;99713.49;1782118;78;21845;-59
2023/06/27 06:14:43;;;;;;;1.42;1.10;;;;;;;17.66;77.60;99709.26;1785355;79;21343;-58
2023/06/27 06:17:50;;;;;;;1.17;0.98;;;;;;;17.57;77.38;99704.30;1783382;79;21486;-58
2023/06/27 06:20:56;;;;;;;1.35;1.00;;;;;;;17.58;77.51;99701.86;1773629;79;21354;-58
2023/06/27 06:24:03;;;;;;;2.98;1.20;;;;;;;17.64;77.50;99704.52;1791873;79;21356;-59
2023/06/27 06:27:10;;;;;;;2.70;2.08;;;;;;;17.72;77.55;99697.79;1796190;79;21341;-58
2023/06/27 06:30:17;;;;;;;1.70;1.30;;;;;;;17.78;77.54;99703.75;1780419;79;21746;-58
2023/06/27 06:33:22;;;;;;;2.98;1.35;;;;;;;17.85;77.51;99700.34;1782984;79;21355;-59
2023/06/27 06:36:28;;;;;;;1.75;0.78;;;;;;;17.84;77.32;99705.55;1795131;79;21921;-62
2023/06/27 06:39:35;;;;;;;4.70;3.80;;;;;;;17.80;77.30;99712.14;1787457;79;21943;-59
2023/06/27 06:42:41;;;;;;;3.47;1.77;;;;;;;17.73;77.22;99710.01;1785043;79;21362;-56
2023/06/27 06:45:46;;;;;;;5.15;2.40;;;;;;;17.72;77.34;99709.72;1787890;79;21860;-58
2023/06/27 06:48:52;;;;;;;1.37;1.12;;;;;;;17.72;77.31;99713.02;1778134;79;21438;-58
2023/06/27 06:52:00;;;;;;;0.85;0.80;;;;;;;17.72;77.26;99713.87;1773915;79;21224;-59
2023/06/27 06:55:05;;;;;;;2.37;0.93;;;;;;;17.75;77.28;99713.39;1797471;79;21310;-59
2023/06/27 06:58:10;;;;;;;1.32;0.82;;;;;;;17.83;77.22;99721.88;1780174;79;21543;-59
2023/06/27 07:01:18;;;;;;;1.35;1.00;;;;;;;17.95;77.30;99720.52;1772159;79;21920;-58
2023/06/27 07:04:24;;;;;;;1.42;1.00;;;;;;;18.10;77.27;99719.48;1797125;79;21827;-57
2023/06/27 07:07:30;;;;;;;1.98;0.80;;;;;;;18.19;77.11;99717.50;1786539;79;21367;-60
2023/06/27 07:10:40;;;;;;;0.70;0.70;;;;;;;18.28;77.11;99714.69;1787103;79;21352;-60
2023/06/27 07:13:41;;;;;;;1.27;0.80;;;;;;;18.38;77.07;99719.63;1775456;79;21923;-58
2023/06/27 07:16:38;;;;;;;0.82;0.80;;;;;;;18.41;76.92;99717.22;1792372;79;21351;-60
2023/06/27 07:19:24;;;;;;;1.27;0.78;;;;;;;18.43;76.84;99715.05;1801145;79;21892;-59
2023/06/27 07:22:17;;;;;;;1.50;0.82;;;;;;;18.46;76.79;99716.48;1791046;79;21375;-59
2023/06/27 07:25:06;;;;;;;0.80;0.80;;;;;;;18.48;76.71;99724.88;1793541;79;21731;-61
2023/06/27 07:28:00;;;;;;;1.00;0.90;;;;;;;18.46;76.49;99728.95;1768584;79;21173;-60
2023/06/27 07:30:47;;;;;;;2.62;1.37;;;;;;;18.45;76.52;99735.06;1801952;79;21861;-58
2023/06/27 07:33:40;;;;;;;1.47;1.30;;;;;;;18.46;76.42;99727.04;1800659;78;21182;-58
2023/06/27 07:36:47;;;;;;;1.40;1.30;;;;;;;18.43;76.23;99736.38;1775946;79;21737;-58
2023/06/27 07:39:51;;;;;;;3.98;1.32;;;;;;;18.31;76.12;99729.44;1769107;80;21308;-58
2023/06/27 07:42:59;;;;;;;1.70;1.40;;;;;;;18.21;76.11;99731.11;1769153;80;21193;-57
2023/06/27 07:46:04;;;;;;;2.00;1.20;;;;;;;18.14;76.14;99742.30;1769101;80;21694;-58
2023/06/27 07:49:11;;;;;;;1.70;1.25;;;;;;;18.09;76.14;99733.05;1772208;79;21746;-58
2023/06/27 07:52:17;;;;;;;1.52;1.20;;;;;;;18.07;76.16;99747.14;1777999;78;21784;-60
2023/06/27 07:55:24;;;;;;;2.55;1.50;;;;;;;18.10;76.32;99741.12;1785117;79;21804;-60
2023/06/27 07:58:30;;;;;;;5.17;1.35;;;;;;;18.17;76.40;99737.67;1788464;78;21204;-56
2023/06/27 08:01:40;;;;;;;4.22;1.52;;;;;;;18.23;76.38;99745.58;1768905;79;21613;-59
2023/06/27 08:04:48;;;;;;;1.87;1.37;;;;;;;18.39;76.48;99740.20;1770014;79;21295;-58
2023/06/27 08:07:57;;;;;;;1.92;1.32;;;;;;;18.54;76.31;99735.52;1787549;78;21303;-57
2023/06/27 08:11:04;;;;;;;2.37;1.75;;;;;;;18.60;76.24;99738.17;1794560;77;21385;-57
2023/06/27 08:14:11;;;;;;;2.37;1.70;;;;;;;18.61;76.09;99744.03;1769459;80;21218;-57
2023/06/27 08:17:17;;;;;;;2.27;1.50;;;;;;;18.56;75.93;99741.14;1774076;79;21205;-59
2023/06/27 08:20:24;;;;;;;2.15;1.60;;;;;;;18.60;75.89;99743.71;1781900;79;21216;-57
2023/06/27 08:23:30;;;;;;;2.00;1.57;;;;;;;18.68;75.80;99741.95;1788708;79;21256;-57
2023/06/27 08:26:39;;;;;;;3.15;1.70;;;;;;;18.83;75.76;99740.06;1769889;81;21181;-58
2023/06/27 08:29:45;;;;;;;6.17;3.10;;;;;;;18.99;75.75;99737.38;1778762;79;21328;-56
2023/06/27 08:32:51;;;;;;;1.72;1.30;;;;;;;19.14;75.67;99740.45;1785165;79;21154;-59
2023/06/27 08:35:57;;;;;;;1.67;1.55;;;;;;;19.27;75.48;99740.16;1779985;79;21201;-56
2023/06/27 08:39:03;;;;;;;1.70;1.40;;;;;;;19.41;75.33;99737.13;1780265;79;21210;-59
2023/06/27 08:42:10;;;;;;;2.58;1.30;;;;;;;19.47;75.04;99745.30;1787138;79;21335;-58
2023/06/27 08:45:17;;;;;;;2.80;1.37;;;;;;;19.44;74.75;99746.34;1770519;79;21220;-57
2023/06/27 08:48:25;;;;;;;4.42;1.60;;;;;;;19.39;74.66;99752.65;1784008;79;21176;-60
2023/06/27 08:51:31;;;;;;;1.35;1.20;;;;;;;19.24;74.42;99753.16;1783926;79;21184;-61
2023/06/27 08:54:49;;;;;;;1.95;1.55;;;;;;;19.07;74.33;99753.64;1784392;78;21205;-59
2023/06/27 08:57:58;;;;;;;2.77;1.40;;;;;;;19.02;74.49;99760.47;1792138;79;21227;-58
2023/06/27 09:01:03;;;;;;;1.90;1.17;;;;;;;19.02;74.46;99756.84;1772447;79;21279;-60
2023/06/27 09:04:10;;;;;;;4.25;1.52;;;;;;;18.98;74.42;99764.80;1780336;79;21204;-59
2023/06/27 09:07:15;;;;;;;3.25;1.70;;;;;;;18.94;74.35;99769.16;1783873;79;21698;-62
2023/06/27 09:10:22;;;;;;;1.80;1.70;;;;;;;18.93;74.42;99765.25;1785485;79;21182;-60
2023/06/27 09:13:29;;;;;;;2.55;1.45;;;;;;;18.99;74.53;99766.51;1779850;79;21189;-62
2023/06/27 09:16:34;;;;;;;2.20;1.70;;;;;;;19.07;74.46;99773.59;1768316;81;21349;-60
2023/06/27 09:19:40;;;;;;;2.50;1.60;;;;;;;19.12;74.39;99772.31;1768463;81;21259;-62
2023/06/27 09:22:45;;;;;;;2.00;1.35;;;;;;;19.18;74.34;99772.18;1769270;81;21189;-59
2023/06/27 09:25:52;;;;;;;1.60;1.30;;;;;;;19.27;74.18;99769.84;1769417;80;21290;-59
2023/06/27 09:29:00;;;;;;;1.82;1.30;;;;;;;19.37;73.99;99767.84;1770044;81;21272;-62
2023/06/27 09:32:15;;;;;;;2.05;1.30;;;;;;;19.46;73.97;99754.70;1771210;80;21844;-61
2023/06/27 09:35:24;;;;;;;1.77;1.30;;;;;;;19.64;73.97;99756.44;1770880;80;21221;-60
2023/06/27 09:38:35;;;;;;;1.17;1.07;;;;;;;19.81;73.78;99760.07;1770215;79;21327;-59
2023/06/27 09:41:56;;;;;;;2.67;1.10;;;;;;;19.91;73.57;99766.67;1776896;79;21343;-60
2023/06/27 09:45:04;;;;;;;1.77;1.30;;;;;;;19.95;73.31;99754.48;1787843;79;21379;-61
2023/06/27 09:48:18;;;;;;;1.42;1.17;;;;;;;20.04;73.24;99751.60;1779023;79;21394;-64
2023/06/27 09:51:27;;;;;;;3.75;1.25;;;;;;;20.18;73.24;99755.75;1770679;81;21169;-59
2023/06/27 09:54:32;;;;;;;2.10;1.27;;;;;;;20.38;73.08;99764.41;1745289;79;21201;-58
2023/06/27 09:57:39;;;;;;;3.42;1.90;;;;;;;20.43;72.71;99759.78;1776255;79;21939;-60
2023/06/27 10:00:46;;;;;;;1.15;1.05;;;;;;;20.59;72.72;99758.07;1765154;81;21196;-59
2023/06/27 10:03:53;;;;;;;2.70;1.10;;;;;;;20.75;72.59;99758.05;1779416;79;21659;-58
2023/06/27 10:07:00;;;;;;;2.20;1.40;;;;;;;20.96;72.51;99752.23;1790024;79;21335;-59
2023/06/27 10:10:08;;;;;;;3.37;1.10;;;;;;;21.22;72.49;99748.66;1797197;79;21343;-57
2023/06/27 10:13:14;;;;;;;1.77;1.20;;;;;;;21.49;72.19;99759.27;1788527;78;21337;-59
2023/06/27 10:16:27;;;;;;;2.10;1.15;;;;;;;21.56;71.76;99757.14;1782969;79;21881;-59
2023/06/27 10:19:34;;;;;;;1.45;1.12;;;;;;;21.50;71.25;99762.34;1778319;79;21370;-56
2023/06/27 10:22:42;;;;;;;1.30;1.02;;;;;;;21.51;71.32;99765.44;1776544;79;21386;-55
2023/06/27 10:25:49;;;;;;;2.67;1.45;;;;;;;21.61;71.36;99757.17;1768149;81;21264;-56
2023/06/27 10:28:58;;;;;;;3.45;1.47;;;;;;;21.76;71.21;99763.48;1771371;79;21754;-57
2023/06/27 10:32:05;;;;;;;2.17;1.37;;;;;;;21.76;70.85;99764.34;1793057;79;21339;-57
2023/06/27 10:35:18;;;;;;;1.50;1.25;;;;;;;21.68;70.55;99767.56;1799412;79;21863;-56
2023/06/27 10:38:24;;;;;;;2.55;1.55;;;;;;;21.59;70.40;99768.30;1773051;79;21173;-57
2023/06/27 10:41:33;;;;;;;4.03;1.35;;;;;;;21.39;70.08;99777.25;1792327;79;21857;-57
2023/06/27 10:44:59;;;;;;;1.95;1.70;;;;;;;21.19;69.80;99769.20;1801700;79;21426;-57
2023/06/27 10:48:05;;;;;;;1.52;1.17;;;;;;;21.08;69.85;99777.98;1782701;79;21332;-57
2023/06/27 10:51:17;;;;;;;2.83;1.05;;;;;;;21.13;69.83;99768.86;1759277;79;21204;-59
2023/06/27 10:54:25;;;;;;;3.72;1.12;;;;;;;21.25;69.85;99769.02;1769589;81;21243;-58
2023/06/27 10:57:32;;;;;;;1.20;1.10;;;;;;;21.43;69.95;99766.44;1784360;78;21383;-62
2023/06/27 11:00:41;;;;;;;1.65;1.17;;;;;;;21.61;69.99;99774.45;1780677;79;21409;-63
2023/06/27 11:03:56;;;;;;;1.35;1.02;;;;;;;21.80;70.02;99770.23;1778643;79;21355;-61
2023/06/27 11:07:00;;;;;;;1.55;1.20;;;;;;;22.03;70.03;99765.70;1772096;80;21272;-62
2023/06/27 11:10:08;;;;;;;7.97;2.90;;;;;;;22.26;69.81;99755.60;1764459;81;21379;-62
2023/06/27 11:13:25;;;;;;;1.07;0.98;;;;;;;22.36;69.31;99759.02;1782772;79;21675;-62
2023/06/27 11:16:31;;;;;;;1.57;1.02;;;;;;;22.23;68.84;99761.14;1782416;79;21351;-63
2023/06/27 11:19:42;;;;;;;2.08;0.98;;;;;;;22.12;68.56;99760.77;1784823;79;21344;-63
2023/06/27 11:22:48;;;;;;;1.10;1.00;;;;;;;21.94;68.26;99772.87;1781044;78;21366;-61
2023/06/27 11:25:55;;;;;;;1.20;1.10;;;;;;;21.73;68.16;99769.02;1778657;79;21459;-64
2023/06/27 11:29:01;;;;;;;1.27;1.02;;;;;;;21.60;68.12;99794.50;1771909;80;21363;-63
2023/06/27 11:32:07;;;;;;;1.10;1.00;;;;;;;21.48;67.99;99791.03;1800558;79;21339;-64
2023/06/27 11:35:17;;;;;;;14.75;6.60;;;;;;;21.39;67.97;99786.18;1775038;79;21382;-61
2023/06/27 11:38:23;;;;;;;1.52;1.20;;;;;;;21.41;67.80;99785.34;1775573;79;21398;-60
2023/06/27 11:41:28;;;;;;;1.47;1.07;;;;;;;21.52;67.79;99779.64;1775255;79;21589;-60
2023/06/27 11:44:37;;;;;;;2.22;1.10;;;;;;;21.62;67.76;99772.80;1778088;79;21402;-63
2023/06/27 11:47:42;;;;;;;1.10;1.00;;;;;;;21.63;67.48;99771.69;1780489;79;21752;-59
2023/06/27 11:51:13;;;;;;;3.58;1.02;;;;;;;21.51;67.32;99778.51;1789363;79;21184;-62
2023/06/27 11:54:21;;;;;;;2.10;1.10;;;;;;;21.46;67.50;99783.48;1779191;79;21363;-63
2023/06/27 11:57:32;;;;;;;1.70;1.22;;;;;;;21.45;67.33;99783.20;1776929;79;21403;-62
2023/06/27 12:00:41;;;;;;;1.62;1.22;;;;;;;21.44;67.21;99770.35;1788990;79;21217;-64
2023/06/27 12:04:00;;;;;;;1.35;1.00;;;;;;;21.53;67.13;99771.56;1786794;79;21354;-64
2023/06/27 12:07:27;;;;;;;3.10;1.77;;;;;;;21.53;66.96;99768.78;1785763;79;21174;-61
2023/06/27 12:10:35;;;;;;;3.27;1.30;;;;;;;21.53;66.94;99777.70;1771839;79;21765;-63
2023/06/27 12:13:43;;;;;;;3.17;1.10;;;;;;;21.57;66.97;99773.28;1714185;82;21225;-61
2023/06/27 12:16:49;;;;;;;1.47;1.10;;;;;;;21.68;67.02;99780.10;1724925;82;21861;-63
2023/06/27 12:19:57;;;;;;;2.42;1.42;;;;;;;21.88;67.12;99776.72;1786196;78;21196;-62
2023/06/27 12:23:06;;;;;;;1.32;1.15;;;;;;;22.01;66.93;99772.94;1777065;79;21563;-61
2023/06/27 12:26:13;;;;;;;6.58;1.57;;;;;;;22.19;66.99;99774.48;1784004;79;21188;-61
2023/06/27 12:29:18;;;;;;;2.58;1.20;;;;;;;22.30;66.75;99773.47;1769559;79;21209;-60
2023/06/27 12:32:25;;;;;;;1.67;1.20;;;;;;;22.30;66.47;99782.38;1788228;79;21228;-62
2023/06/27 12:35:32;;;;;;;1.17;1.00;;;;;;;22.29;66.37;99782.10;1770977;78;22248;-57
2023/06/27 12:38:39;;;;;;;1.40;1.27;;;;;;;22.33;66.28;99777.66;1783226;79;21169;-59
2023/06/27 12:41:47;;;;;;;1.02;0.90;;;;;;;22.40;66.12;99773.56;1792224;79;21771;-59
2023/06/27 12:44:55;;;;;;;1.75;0.90;;;;;;;22.43;65.92;99782.78;1784532;79;21299;-59
2023/06/27 12:48:00;;;;;;;1.75;1.20;;;;;;;22.39;65.78;99793.34;1783381;79;21332;-60
2023/06/27 12:51:07;;;;;;;2.55;1.27;;;;;;;22.23;65.47;99794.60;1782978;79;21371;-61
2023/06/27 12:54:14;;;;;;;2.80;1.20;;;;;;;22.13;65.47;99788.95;1772137;79;21622;-61
2023/06/27 12:57:20;;;;;;;1.07;0.98;;;;;;;22.20;65.65;99786.77;1775187;79;21206;-59
2023/06/27 13:00:26;;;;;;;2.30;1.00;;;;;;;22.24;65.60;99787.09;1770090;81;21205;-57
2023/06/27 13:03:32;;;;;;;1.47;1.02;;;;;;;22.31;65.57;99779.89;1792837;79;21347;-58
2023/06/27 13:06:38;;;;;;;1.15;0.90;;;;;;;22.39;65.42;99784.98;1783457;79;21256;-59
2023/06/27 13:09:45;;;;;;;1.15;1.00;;;;;;;22.34;65.17;99776.57;1783091;79;21198;-60
2023/06/27 13:12:54;;;;;;;1.95;1.00;;;;;;;22.18;64.73;99782.58;1769895;80;21209;-58
2023/06/27 13:15:59;;;;;;;5.10;1.10;;;;;;;22.04;64.72;99768.80;1769872;81;21852;-60
2023/06/27 13:19:07;;;;;;;1.10;1.00;;;;;;;22.03;64.74;99772.13;1787090;79;21872;-58
2023/06/27 13:22:14;;;;;;;1.32;1.05;;;;;;;22.02;64.62;99774.61;1798024;79;21868;-58
2023/06/27 13:25:22;;;;;;;15.72;7.70;;;;;;;21.98;64.58;99766.50;1788158;78;21394;-60
2023/06/27 13:28:28;;;;;;;2.62;1.40;;;;;;;22.08;64.58;99767.14;1769819;80;21204;-59
2023/06/27 13:31:34;;;;;;;1.32;1.12;;;;;;;22.12;64.46;99773.86;1787287;78;21888;-58
2023/06/27 13:34:39;;;;;;;3.58;1.52;;;;;;;22.12;64.43;99784.47;1797281;79;21906;-61
2023/06/27 13:37:46;;;;;;;3.10;1.30;;;;;;;22.12;64.23;99773.31;1801404;79;21332;-58
2023/06/27 13:40:54;;;;;;;1.72;1.10;;;;;;;22.14;64.11;99768.87;1801288;79;21343;-58
2023/06/27 13:44:00;;;;;;;1.27;1.15;;;;;;;22.22;64.08;99768.38;1801096;79;21343;-61
2023/06/27 13:47:06;;;;;;;1.40;1.07;;;;;;;22.23;63.86;99761.14;1784333;78;21503;-61
2023/06/27 13:50:14;;;;;;;1.05;0.95;;;;;;;22.23;63.75;99757.53;1781104;79;21730;-57
2023/06/27 13:53:20;;;;;;;1.27;1.10;;;;;;;22.23;63.53;99759.47;1769124;81;21173;-60
2023/06/27 13:56:26;;;;;;;1.60;1.10;;;;;;;22.21;63.27;99766.13;1738319;81;21216;-58
2023/06/27 13:59:33;;;;;;;1.65;1.12;;;;;;;22.27;63.35;99760.06;1727883;82;21214;-57
2023/06/27 14:02:42;;;;;;;1.62;1.00;;;;;;;22.32;63.18;99759.25;1720914;81;21188;-57
2023/06/27 14:06:00;;;;;;;1.87;1.07;;;;;;;22.28;63.06;99761.73;1725054;81;21245;-56
2023/06/27 14:09:14;;;;;;;3.98;1.45;;;;;;;22.29;62.88;99759.79;1784632;79;21533;-59
2023/06/27 14:12:18;;;;;;;3.12;1.40;;;;;;;22.26;62.78;99761.72;1768445;80;21577;-59
2023/06/27 14:15:24;;;;;;;2.27;1.10;;;;;;;22.26;62.68;99756.14;1768587;79;21519;-59
2023/06/27 14:18:30;;;;;;;1.70;1.00;;;;;;;22.34;62.63;99764.02;1769231;80;21197;-59
2023/06/27 14:21:37;;;;;;;1.07;0.93;;;;;;;22.46;62.61;99774.42;1768635;80;21188;-58
2023/06/27 14:24:42;;;;;;;1.00;0.90;;;;;;;22.60;62.37;99756.98;1772787;79;21204;-59
2023/06/27 14:27:51;;;;;;;1.22;1.00;;;;;;;22.75;62.24;99766.86;1797758;79;21201;-58
2023/06/27 14:30:56;;;;;;;1.55;1.20;;;;;;;22.82;61.92;99755.43;1781449;79;21177;-62
2023/06/27 14:34:03;;;;;;;2.25;1.05;;;;;;;22.83;61.77;99757.13;1783228;79;21232;-57
2023/06/27 14:37:09;;;;;;;1.22;1.12;;;;;;;22.83;61.66;99752.94;1768324;80;21546;-60
2023/06/27 14:40:17;;;;;;;2.42;1.20;;;;;;;22.82;61.57;99754.88;1769893;80;21713;-58
2023/06/27 14:43:22;;;;;;;1.37;1.10;;;;;;;22.96;61.46;99758.05;1768978;80;21251;-57